Time;durP1;ratioP1;P1;durP2;ratioP2;P2;SDS_P1;SDS_P2;PMS_P1;PMS_P2;Temp;Humidity;BMP_temperature;BMP_pressure;BME280_temperature;BME280_humidity;BME280_pressure;Samples;Min_cycle;Max_cycle;Signal;HPM_P1;HPM_P2
2022/10/21 00:00:50;;;;;;;2.80;1.38;;;;;;;;;;5088375;28;20058;-85
2022/10/21 00:03:20;;;;;;;1.85;0.90;;;;;;;;;;5086288;28;20040;-86
2022/10/21 00:05:49;;;;;;;1.45;1.10;;;;;;;;;;5084337;28;20052;-86
2022/10/21 00:08:18;;;;;;;3.50;1.05;;;;;;;;;;5086674;28;20047;-85
2022/10/21 00:10:46;;;;;;;2.08;1.17;;;;;;;;;;5089830;28;20535;-85
2022/10/21 00:13:14;;;;;;;3.72;1.42;;;;;;;;;;5087939;28;20411;-84
2022/10/21 00:15:42;;;;;;;1.83;1.17;;;;;;;;;;5079494;28;20091;-86
2022/10/21 00:18:11;;;;;;;2.20;1.25;;;;;;;;;;5085657;28;20048;-86
2022/10/21 00:20:41;;;;;;;2.10;0.98;;;;;;;;;;5083283;28;20036;-86
2022/10/21 00:23:10;;;;;;;1.50;0.77;;;;;;;;;;5074734;28;20060;-86
2022/10/21 00:25:39;;;;;;;1.85;1.05;;;;;;;;;;5083833;28;20044;-86
2022/10/21 00:28:07;;;;;;;3.55;1.40;;;;;;;;;;5081702;28;20056;-85
2022/10/21 00:30:35;;;;;;;4.45;1.30;;;;;;;;;;5086855;28;20048;-87
2022/10/21 00:33:03;;;;;;;1.85;0.80;;;;;;;;;;5085081;28;20056;-86
2022/10/21 00:35:33;;;;;;;2.10;1.20;;;;;;;;;;5075746;28;20385;-86
2022/10/21 00:38:03;;;;;;;1.38;1.17;;;;;;;;;;5087878;28;20040;-86
2022/10/21 00:40:31;;;;;;;4.15;1.17;;;;;;;;;;5084519;28;20407;-87
2022/10/21 00:43:00;;;;;;;3.40;1.50;;;;;;;;;;5088202;28;20044;-86
2022/10/21 00:45:28;;;;;;;1.63;1.00;;;;;;;;;;5083490;28;20053;-86
2022/10/21 00:47:59;;;;;;;2.00;1.08;;;;;;;;;;5087254;28;20049;-86
2022/10/21 00:50:31;;;;;;;2.53;0.90;;;;;;;;;;5086125;28;20040;-86
2022/10/21 00:53:01;;;;;;;1.02;0.60;;;;;;;;;;5090710;28;20055;-86
2022/10/21 00:55:33;;;;;;;1.58;1.05;;;;;;;;;;5079021;28;20052;-84
2022/10/21 00:58:02;;;;;;;3.78;1.02;;;;;;;;;;5075683;28;20059;-87
2022/10/21 01:00:30;;;;;;;1.75;1.58;;;;;;;;;;5085508;28;20055;-87
2022/10/21 01:02:59;;;;;;;5.45;2.00;;;;;;;;;;5088711;28;20071;-85
2022/10/21 01:05:28;;;;;;;5.35;1.58;;;;;;;;;;5085812;28;20519;-86
2022/10/21 01:07:56;;;;;;;3.40;1.40;;;;;;;;;;5087819;28;20127;-86
2022/10/21 01:10:25;;;;;;;2.33;1.17;;;;;;;;;;5090560;28;20048;-86
2022/10/21 01:13:02;;;;;;;3.28;1.35;;;;;;;;;;5086856;28;20059;-86
2022/10/21 01:15:34;;;;;;;3.67;1.10;;;;;;;;;;5092418;28;20385;-86
2022/10/21 01:18:05;;;;;;;3.47;1.23;;;;;;;;;;5094109;28;20044;-86
2022/10/21 01:20:41;;;;;;;1.23;0.65;;;;;;;;;;5085249;28;20059;-86
2022/10/21 01:23:36;;;;;;;3.35;0.82;;;;;;;;;;5093792;28;20054;-86
2022/10/21 01:26:15;;;;;;;1.67;0.88;;;;;;;;;;5089378;28;20040;-87
2022/10/21 01:28:51;;;;;;;2.85;1.08;;;;;;;;;;5084340;28;20507;-86
2022/10/21 01:31:22;;;;;;;3.00;1.40;;;;;;;;;;5092854;28;20051;-86
2022/10/21 01:33:53;;;;;;;1.38;1.10;;;;;;;;;;5088800;28;20058;-86
2022/10/21 01:36:28;;;;;;;1.58;1.33;;;;;;;;;;5085646;28;20130;-86
2022/10/21 01:39:02;;;;;;;2.17;0.95;;;;;;;;;;5083362;28;20481;-86
2022/10/21 01:41:33;;;;;;;2.88;1.38;;;;;;;;;;5084775;28;20055;-86
2022/10/21 01:44:04;;;;;;;1.15;1.15;;;;;;;;;;5092191;28;20051;-86
2022/10/21 01:46:38;;;;;;;3.15;1.45;;;;;;;;;;5086838;28;20044;-86
2022/10/21 01:49:08;;;;;;;2.00;1.35;;;;;;;;;;5084420;28;20142;-85
2022/10/21 01:51:37;;;;;;;1.77;1.05;;;;;;;;;;5079169;28;20053;-86
2022/10/21 01:54:07;;;;;;;2.55;1.20;;;;;;;;;;5081610;28;20035;-86
2022/10/21 01:56:36;;;;;;;1.95;1.42;;;;;;;;;;5083709;28;20043;-86
2022/10/21 01:59:05;;;;;;;3.35;1.05;;;;;;;;;;5084568;28;20044;-86
2022/10/21 02:01:36;;;;;;;1.83;0.98;;;;;;;;;;5081870;28;20059;-86
2022/10/21 02:04:05;;;;;;;5.85;1.13;;;;;;;;;;5082458;28;20048;-85
2022/10/21 02:06:34;;;;;;;3.92;1.48;;;;;;;;;;5094631;28;20377;-86
2022/10/21 02:09:02;;;;;;;8.90;1.10;;;;;;;;;;5089722;28;20056;-86
2022/10/21 02:11:31;;;;;;;3.85;1.42;;;;;;;;;;5083174;28;20103;-86
2022/10/21 02:14:02;;;;;;;1.10;0.88;;;;;;;;;;5092561;28;20044;-86
2022/10/21 02:16:32;;;;;;;3.15;1.25;;;;;;;;;;5091520;28;20051;-86
2022/10/21 02:19:01;;;;;;;5.57;0.98;;;;;;;;;;5086603;28;20059;-86
2022/10/21 02:21:33;;;;;;;1.83;1.10;;;;;;;;;;5091270;28;20052;-86
2022/10/21 02:24:05;;;;;;;2.13;1.00;;;;;;;;;;5088903;28;20053;-85
2022/10/21 02:26:33;;;;;;;1.05;0.90;;;;;;;;;;5077279;28;20053;-85
2022/10/21 02:29:02;;;;;;;2.92;1.75;;;;;;;;;;5093214;28;20381;-86
2022/10/21 02:31:38;;;;;;;3.00;1.20;;;;;;;;;;5087695;28;20510;-86
2022/10/21 02:34:14;;;;;;;2.30;1.13;;;;;;;;;;5093135;28;20067;-86
2022/10/21 02:36:46;;;;;;;2.35;1.38;;;;;;;;;;5091272;28;20087;-85
2022/10/21 02:39:19;;;;;;;3.45;1.45;;;;;;;;;;5086259;28;20781;-86
2022/10/21 02:41:48;;;;;;;3.78;1.23;;;;;;;;;;5080047;28;20055;-85
2022/10/21 02:44:17;;;;;;;6.53;1.67;;;;;;;;;;5079841;28;20040;-87
2022/10/21 02:46:47;;;;;;;2.40;1.10;;;;;;;;;;5080625;28;20131;-86
2022/10/21 02:49:17;;;;;;;1.10;1.00;;;;;;;;;;5080030;28;20399;-86
2022/10/21 02:51:46;;;;;;;1.27;0.63;;;;;;;;;;5087011;28;20062;-86
2022/10/21 02:54:14;;;;;;;1.88;1.30;;;;;;;;;;5084517;28;20052;-85
2022/10/21 02:56:42;;;;;;;5.22;1.02;;;;;;;;;;5080503;28;20043;-86
2022/10/21 02:59:10;;;;;;;1.52;0.65;;;;;;;;;;5083165;28;20576;-86
2022/10/21 03:01:39;;;;;;;2.95;1.40;;;;;;;;;;5084467;28;20048;-86
2022/10/21 03:04:07;;;;;;;2.13;1.50;;;;;;;;;;5083913;28;20051;-87
2022/10/21 03:06:37;;;;;;;3.90;1.25;;;;;;;;;;5083646;28;20530;-86
2022/10/21 03:09:05;;;;;;;1.30;0.73;;;;;;;;;;5083209;28;20062;-87
2022/10/21 03:11:34;;;;;;;1.52;1.00;;;;;;;;;;5079769;28;20052;-87
2022/10/21 03:14:02;;;;;;;3.28;1.13;;;;;;;;;;5083273;28;20044;-87
2022/10/21 03:16:30;;;;;;;2.22;0.90;;;;;;;;;;5080011;28;20084;-86
2022/10/21 03:18:59;;;;;;;2.67;1.13;;;;;;;;;;5075349;28;20432;-87
2022/10/21 03:21:27;;;;;;;3.42;1.00;;;;;;;;;;5085234;28;20054;-86
2022/10/21 03:23:56;;;;;;;1.63;1.00;;;;;;;;;;5081505;28;20044;-86
2022/10/21 03:26:25;;;;;;;1.88;0.80;;;;;;;;;;5086704;28;20048;-86
2022/10/21 03:28:53;;;;;;;2.05;1.13;;;;;;;;;;5086787;28;20044;-86
2022/10/21 03:31:21;;;;;;;2.60;1.15;;;;;;;;;;5082392;28;20411;-87
2022/10/21 03:33:50;;;;;;;4.88;1.45;;;;;;;;;;5084638;28;20462;-87
2022/10/21 03:36:18;;;;;;;1.30;1.10;;;;;;;;;;5085493;28;20048;-86
2022/10/21 03:38:46;;;;;;;0.95;0.80;;;;;;;;;;5081169;28;20420;-87
2022/10/21 03:41:16;;;;;;;1.88;1.00;;;;;;;;;;5086250;28;20048;-86
2022/10/21 03:43:44;;;;;;;2.58;1.20;;;;;;;;;;5085863;28;20729;-86
2022/10/21 03:46:12;;;;;;;4.93;1.38;;;;;;;;;;5086719;28;20396;-86
2022/10/21 03:48:41;;;;;;;2.40;0.85;;;;;;;;;;5085956;28;20054;-87
2022/10/21 03:51:09;;;;;;;3.92;2.53;;;;;;;;;;5084485;28;20060;-86
2022/10/21 03:53:37;;;;;;;2.10;0.93;;;;;;;;;;5082145;28;20119;-87
2022/10/21 03:56:11;;;;;;;1.10;0.70;;;;;;;;;;5077614;28;20051;-86
2022/10/21 03:58:40;;;;;;;2.78;0.98;;;;;;;;;;5086224;28;20052;-86
2022/10/21 04:01:11;;;;;;;3.30;1.33;;;;;;;;;;5081361;28;20048;-87
2022/10/21 04:03:40;;;;;;;3.45;1.25;;;;;;;;;;5087161;28;20047;-84
2022/10/21 04:06:08;;;;;;;3.00;1.48;;;;;;;;;;5091202;28;20048;-86
2022/10/21 04:08:36;;;;;;;6.03;1.40;;;;;;;;;;5083716;28;20090;-87
2022/10/21 04:11:05;;;;;;;2.08;1.20;;;;;;;;;;5085208;28;20048;-87
2022/10/21 04:13:33;;;;;;;3.58;1.40;;;;;;;;;;5078226;28;20059;-86
2022/10/21 04:16:04;;;;;;;2.35;1.30;;;;;;;;;;5088541;28;20050;-86
2022/10/21 04:18:33;;;;;;;0.82;0.68;;;;;;;;;;5083713;28;20058;-87
2022/10/21 04:21:01;;;;;;;1.75;1.00;;;;;;;;;;5081639;28;20142;-86
2022/10/21 04:23:29;;;;;;;2.25;1.13;;;;;;;;;;5083333;28;20053;-86
2022/10/21 04:25:58;;;;;;;4.60;1.30;;;;;;;;;;5089951;28;20054;-86
2022/10/21 04:28:26;;;;;;;3.70;0.90;;;;;;;;;;5088708;28;20051;-87
2022/10/21 04:30:54;;;;;;;3.10;1.38;;;;;;;;;;5080242;28;20063;-86
2022/10/21 04:33:24;;;;;;;1.85;1.52;;;;;;;;;;5086264;28;20047;-86
2022/10/21 04:35:54;;;;;;;2.00;0.90;;;;;;;;;;5080964;28;20487;-85
2022/10/21 04:38:22;;;;;;;3.00;1.02;;;;;;;;;;5081944;28;20055;-87
2022/10/21 04:40:56;;;;;;;0.85;0.70;;;;;;;;;;5077500;28;20063;-87
2022/10/21 04:43:24;;;;;;;2.20;0.90;;;;;;;;;;5081430;28;20050;-87
2022/10/21 04:45:53;;;;;;;4.03;1.08;;;;;;;;;;5088943;28;20044;-87
2022/10/21 04:48:21;;;;;;;3.97;1.38;;;;;;;;;;5093945;28;20051;-88
2022/10/21 04:50:54;;;;;;;1.75;0.70;;;;;;;;;;5092478;28;20723;-88
2022/10/21 04:53:23;;;;;;;1.92;0.85;;;;;;;;;;5105059;28;20048;-88
2022/10/21 04:55:52;;;;;;;1.65;1.10;;;;;;;;;;5097862;28;20044;-88
2022/10/21 04:58:21;;;;;;;1.40;0.93;;;;;;;;;;5096934;28;20134;-92
2022/10/21 05:00:51;;;;;;;3.65;1.25;;;;;;;;;;5089879;28;20052;-89
2022/10/21 05:03:21;;;;;;;3.88;1.10;;;;;;;;;;5067761;28;20411;-89
2022/10/21 05:05:55;;;;;;;1.65;0.93;;;;;;;;;;5081715;28;20059;-89
2022/10/21 05:08:25;;;;;;;2.13;1.05;;;;;;;;;;5079552;28;21628;-91
2022/10/21 05:11:02;;;;;;;2.75;0.82;;;;;;;;;;5075896;28;20645;-88
2022/10/21 05:13:32;;;;;;;5.22;1.45;;;;;;;;;;5079674;28;20052;-89
2022/10/21 05:16:00;;;;;;;4.78;0.98;;;;;;;;;;5082248;28;20040;-87
2022/10/21 05:18:29;;;;;;;2.53;1.10;;;;;;;;;;5077443;28;20048;-87
2022/10/21 05:20:59;;;;;;;3.00;0.95;;;;;;;;;;5079305;28;20052;-85
2022/10/21 05:23:27;;;;;;;0.98;0.90;;;;;;;;;;5075551;28;20052;-86
2022/10/21 05:25:55;;;;;;;1.55;1.25;;;;;;;;;;5078912;28;20696;-88
2022/10/21 05:28:24;;;;;;;4.20;1.85;;;;;;;;;;5073340;28;20040;-86
2022/10/21 05:30:53;;;;;;;3.65;1.75;;;;;;;;;;5083933;28;20040;-86
2022/10/21 05:33:21;;;;;;;3.25;1.25;;;;;;;;;;5078958;28;20526;-86
2022/10/21 05:35:56;;;;;;;3.45;1.70;;;;;;;;;;5069805;28;20052;-85
2022/10/21 05:38:24;;;;;;;;;;;;;;;;;;5078862;28;20052;-88
2022/10/21 05:40:54;;;;;;;4.25;2.00;;;;;;;;;;5076352;28;19920;-86
2022/10/21 05:43:23;;;;;;;4.82;1.60;;;;;;;;;;5083949;28;20048;-88
2022/10/21 05:45:51;;;;;;;2.55;1.25;;;;;;;;;;5083781;28;20044;-86
2022/10/21 05:48:20;;;;;;;2.03;1.60;;;;;;;;;;5075920;28;20040;-85
2022/10/21 05:50:48;;;;;;;2.25;1.48;;;;;;;;;;5076009;28;20063;-87
2022/10/21 05:53:16;;;;;;;2.90;0.98;;;;;;;;;;5076638;28;20051;-85
2022/10/21 05:55:56;;;;;;;2.58;1.38;;;;;;;;;;5084784;28;20138;-87
2022/10/21 05:58:25;;;;;;;2.50;1.10;;;;;;;;;;5083752;28;20052;-87
2022/10/21 06:00:54;;;;;;;4.78;1.20;;;;;;;;;;5092677;28;20185;-88
2022/10/21 06:03:23;;;;;;;3.47;1.55;;;;;;;;;;5089492;28;20101;-88
2022/10/21 06:05:52;;;;;;;1.63;0.70;;;;;;;;;;5078742;28;20113;-88
2022/10/21 06:08:20;;;;;;;2.08;1.33;;;;;;;;;;5089371;28;20044;-88
2022/10/21 06:10:48;;;;;;;2.05;1.05;;;;;;;;;;5085263;28;20063;-88
2022/10/21 06:13:18;;;;;;;2.95;1.67;;;;;;;;;;5069826;28;20064;-89
2022/10/21 06:15:46;;;;;;;1.90;1.08;;;;;;;;;;5085392;28;20052;-89
2022/10/21 06:18:18;;;;;;;3.13;1.13;;;;;;;;;;5084372;28;20143;-88
2022/10/21 06:20:46;;;;;;;7.63;1.27;;;;;;;;;;5089743;28;20062;-88
2022/10/21 06:23:15;;;;;;;3.25;1.60;;;;;;;;;;5089193;28;20053;-90
2022/10/21 06:25:43;;;;;;;8.60;1.40;;;;;;;;;;5091520;28;20036;-87
2022/10/21 06:28:27;;;;;;;4.70;1.35;;;;;;;;;;5078903;28;20044;-88
2022/10/21 06:30:56;;;;;;;10.27;1.77;;;;;;;;;;5077611;28;20118;-88
2022/10/21 06:33:25;;;;;;;2.03;1.67;;;;;;;;;;5088539;28;20044;-87
2022/10/21 06:35:54;;;;;;;3.10;1.45;;;;;;;;;;5083312;28;20048;-87
2022/10/21 06:38:24;;;;;;;5.05;1.85;;;;;;;;;;5075051;28;20052;-89
2022/10/21 06:40:53;;;;;;;2.40;1.10;;;;;;;;;;5080652;28;20151;-88
2022/10/21 06:43:21;;;;;;;3.17;1.17;;;;;;;;;;5026887;28;20057;-88
2022/10/21 06:46:01;;;;;;;4.38;1.27;;;;;;;;;;5033134;28;20080;-87
2022/10/21 06:48:29;;;;;;;2.35;1.15;;;;;;;;;;5030128;28;20497;-87
2022/10/21 06:50:58;;;;;;;1.75;1.20;;;;;;;;;;5035042;28;20087;-87
2022/10/21 06:53:28;;;;;;;4.40;2.00;;;;;;;;;;5031343;28;20053;-87
2022/10/21 06:56:06;;;;;;;3.50;1.20;;;;;;;;;;5031497;28;20045;-86
2022/10/21 06:58:35;;;;;;;1.92;0.98;;;;;;;;;;5050756;28;20522;-89
2022/10/21 07:01:08;;;;;;;6.38;1.13;;;;;;;;;;5035789;28;20463;-86
2022/10/21 07:03:57;;;;;;;1.73;0.95;;;;;;;;;;5039668;28;20052;-87
2022/10/21 07:06:27;;;;;;;4.10;1.58;;;;;;;;;;5041670;28;20051;-86
2022/10/21 07:08:55;;;;;;;2.30;1.55;;;;;;;;;;5066749;28;20056;-86
2022/10/21 07:11:26;;;;;;;5.30;1.60;;;;;;;;;;5074193;28;20131;-86
2022/10/21 07:13:55;;;;;;;4.65;1.90;;;;;;;;;;5080493;28;20059;-86
2022/10/21 07:16:25;;;;;;;4.80;1.30;;;;;;;;;;5086787;28;20404;-85
2022/10/21 07:18:54;;;;;;;2.65;1.17;;;;;;;;;;5087456;28;20043;-86
2022/10/21 07:21:23;;;;;;;2.97;1.50;;;;;;;;;;5078523;28;20117;-84
2022/10/21 07:23:52;;;;;;;3.50;1.40;;;;;;;;;;5089689;28;20049;-85
2022/10/21 07:26:27;;;;;;;3.25;1.40;;;;;;;;;;5082628;28;20086;-86
2022/10/21 07:28:57;;;;;;;9.80;1.73;;;;;;;;;;5084483;28;20047;-85
2022/10/21 07:31:28;;;;;;;3.10;1.08;;;;;;;;;;5085460;28;20117;-85
2022/10/21 07:33:57;;;;;;;2.80;1.13;;;;;;;;;;5085277;28;20047;-84
2022/10/21 07:36:27;;;;;;;4.90;1.52;;;;;;;;;;5087283;28;20048;-86
2022/10/21 07:38:56;;;;;;;5.78;1.65;;;;;;;;;;5079218;28;20048;-84
2022/10/21 07:41:26;;;;;;;6.55;1.90;;;;;;;;;;5087051;28;20048;-85
2022/10/21 07:43:55;;;;;;;6.30;1.50;;;;;;;;;;5079932;28;20047;-86
2022/10/21 07:46:23;;;;;;;4.88;1.17;;;;;;;;;;5090368;28;20131;-86
2022/10/21 07:48:54;;;;;;;3.38;1.45;;;;;;;;;;5077019;28;20068;-84
2022/10/21 07:51:23;;;;;;;6.45;2.22;;;;;;;;;;5082442;28;20503;-84
2022/10/21 07:53:56;;;;;;;5.03;1.70;;;;;;;;;;5076962;28;20550;-85
2022/10/21 07:56:26;;;;;;;3.63;1.65;;;;;;;;;;5089519;28;20434;-86
2022/10/21 07:58:55;;;;;;;2.63;1.33;;;;;;;;;;5078165;28;20048;-85
2022/10/21 08:01:24;;;;;;;2.47;1.35;;;;;;;;;;5089205;28;20139;-87
2022/10/21 08:03:53;;;;;;;2.50;1.60;;;;;;;;;;5081754;28;20055;-86
2022/10/21 08:06:24;;;;;;;4.30;2.28;;;;;;;;;;5087538;28;20055;-86
2022/10/21 08:08:54;;;;;;;3.45;1.35;;;;;;;;;;5083795;28;20483;-86
2022/10/21 08:11:24;;;;;;;4.97;1.90;;;;;;;;;;5082247;28;20047;-86
2022/10/21 08:13:53;;;;;;;2.75;1.38;;;;;;;;;;5076844;28;20055;-86
2022/10/21 08:16:22;;;;;;;3.42;1.67;;;;;;;;;;5080888;28;20055;-86
2022/10/21 08:18:50;;;;;;;3.50;1.40;;;;;;;;;;5085118;28;20170;-86
2022/10/21 08:21:19;;;;;;;4.20;1.92;;;;;;;;;;5086767;28;20052;-86
2022/10/21 08:23:49;;;;;;;2.80;1.23;;;;;;;;;;5090397;28;20044;-86
2022/10/21 08:26:18;;;;;;;3.47;1.45;;;;;;;;;;5087854;28;20052;-85
2022/10/21 08:28:47;;;;;;;2.45;1.70;;;;;;;;;;5080764;28;20127;-86
2022/10/21 08:31:16;;;;;;;10.23;2.78;;;;;;;;;;5082001;28;20047;-86
2022/10/21 08:33:45;;;;;;;1.02;0.80;;;;;;;;;;5088300;28;20134;-86
2022/10/21 08:36:14;;;;;;;1.90;1.10;;;;;;;;;;5083281;28;20040;-84
2022/10/21 08:38:43;;;;;;;9.52;1.45;;;;;;;;;;5090406;28;20456;-86
2022/10/21 08:41:19;;;;;;;2.55;1.50;;;;;;;;;;5086742;28;20138;-86
2022/10/21 08:43:49;;;;;;;7.05;1.80;;;;;;;;;;5104186;28;20101;-86
2022/10/21 08:46:20;;;;;;;5.10;1.52;;;;;;;;;;5090127;28;20059;-85
2022/10/21 08:48:50;;;;;;;4.75;2.22;;;;;;;;;;5088716;28;20052;-86
2022/10/21 08:51:23;;;;;;;3.08;1.42;;;;;;;;;;5084510;28;20504;-86
2022/10/21 08:53:53;;;;;;;1.25;0.75;;;;;;;;;;5083394;28;20444;-86
2022/10/21 08:56:25;;;;;;;3.92;1.60;;;;;;;;;;5083784;28;20173;-86
2022/10/21 08:58:53;;;;;;;1.77;1.17;;;;;;;;;;5082901;28;20055;-86
2022/10/21 09:01:24;;;;;;;1.88;1.00;;;;;;;;;;5078097;28;20057;-85
2022/10/21 09:03:55;;;;;;;3.47;2.05;;;;;;;;;;5085889;28;20044;-87
2022/10/21 09:06:26;;;;;;;4.82;1.58;;;;;;;;;;5086758;28;20052;-85
2022/10/21 09:09:01;;;;;;;2.13;1.20;;;;;;;;;;5080033;28;20061;-87
2022/10/21 09:11:42;;;;;;;2.28;1.23;;;;;;;;;;5085980;28;20052;-86
2022/10/21 09:14:22;;;;;;;3.20;1.63;;;;;;;;;;5077291;28;20476;-87
2022/10/21 09:16:54;;;;;;;2.58;1.45;;;;;;;;;;5086811;28;20080;-86
2022/10/21 09:19:29;;;;;;;2.63;1.95;;;;;;;;;;5078559;28;20051;-86
2022/10/21 09:22:06;;;;;;;3.75;1.55;;;;;;;;;;5086128;28;20495;-87
2022/10/21 09:24:59;;;;;;;3.60;2.15;;;;;;;;;;5084744;28;20048;-85
2022/10/21 09:27:29;;;;;;;2.78;1.55;;;;;;;;;;5081046;28;20134;-86
2022/10/21 09:30:20;;;;;;;5.07;1.58;;;;;;;;;;5086177;28;20078;-86
2022/10/21 09:32:49;;;;;;;3.80;1.45;;;;;;;;;;5080693;28;20044;-86
2022/10/21 09:35:27;;;;;;;2.80;1.30;;;;;;;;;;5085880;28;20102;-86
2022/10/21 09:37:57;;;;;;;5.13;1.23;;;;;;;;;;5093429;28;20384;-87
2022/10/21 09:40:27;;;;;;;7.32;2.15;;;;;;;;;;5085919;28;20056;-87
2022/10/21 09:43:00;;;;;;;4.78;1.65;;;;;;;;;;5087819;28;20059;-84
2022/10/21 09:45:31;;;;;;;8.32;2.05;;;;;;;;;;5091336;28;20471;-87
2022/10/21 09:48:00;;;;;;;4.30;1.55;;;;;;;;;;5083821;28;20113;-86
2022/10/21 09:50:29;;;;;;;5.75;2.42;;;;;;;;;;5090194;28;20044;-86
2022/10/21 09:53:02;;;;;;;4.50;1.67;;;;;;;;;;5090848;28;20044;-86
2022/10/21 09:55:32;;;;;;;6.00;2.33;;;;;;;;;;5081112;28;20079;-86
2022/10/21 09:58:02;;;;;;;4.20;2.35;;;;;;;;;;5090845;28;20058;-84
2022/10/21 10:00:45;;;;;;;10.15;2.55;;;;;;;;;;5092495;28;20051;-86
2022/10/21 10:03:29;;;;;;;4.95;2.10;;;;;;;;;;5091193;27;20052;-86
2022/10/21 10:05:58;;;;;;;3.83;1.98;;;;;;;;;;5088355;28;20556;-87
2022/10/21 10:08:34;;;;;;;8.40;1.58;;;;;;;;;;5087511;28;20051;-88
2022/10/21 10:11:12;;;;;;;3.97;1.70;;;;;;;;;;5085318;28;20068;-87
2022/10/21 10:13:43;;;;;;;4.57;1.77;;;;;;;;;;5079093;28;20044;-89
2022/10/21 10:16:21;;;;;;;4.70;2.05;;;;;;;;;;5080847;28;20109;-88
2022/10/21 10:18:50;;;;;;;4.43;2.10;;;;;;;;;;5084046;28;20048;-88
2022/10/21 10:21:19;;;;;;;5.97;2.28;;;;;;;;;;5083593;28;20049;-88
2022/10/21 10:23:48;;;;;;;3.22;1.70;;;;;;;;;;5088100;28;20055;-86
2022/10/21 10:26:18;;;;;;;6.28;2.13;;;;;;;;;;5090002;28;20047;-87
2022/10/21 10:28:53;;;;;;;6.18;2.20;;;;;;;;;;5088579;28;20044;-87
2022/10/21 10:31:33;;;;;;;3.88;1.98;;;;;;;;;;5091502;28;20078;-90
2022/10/21 10:34:03;;;;;;;5.90;1.73;;;;;;;;;;5091094;28;20047;-88
2022/10/21 10:36:34;;;;;;;6.85;2.22;;;;;;;;;;5090489;28;20056;-88
2022/10/21 10:39:03;;;;;;;3.58;1.65;;;;;;;;;;5086594;28;20047;-88
2022/10/21 10:41:33;;;;;;;5.18;2.00;;;;;;;;;;5083792;28;20040;-89
2022/10/21 10:44:08;;;;;;;4.97;1.52;;;;;;;;;;5081189;28;20502;-87
2022/10/21 10:46:38;;;;;;;4.25;1.85;;;;;;;;;;5089558;28;20059;-88
2022/10/21 10:49:07;;;;;;;2.28;1.02;;;;;;;;;;5089210;28;20044;-88
2022/10/21 10:51:36;;;;;;;6.20;1.70;;;;;;;;;;5092994;28;20047;-88
2022/10/21 10:54:18;;;;;;;4.75;2.35;;;;;;;;;;5089667;28;20338;-88
2022/10/21 10:56:50;;;;;;;4.03;1.63;;;;;;;;;;5090843;28;20450;-88
2022/10/21 10:59:25;;;;;;;5.70;2.15;;;;;;;;;;5087191;28;20056;-89
2022/10/21 11:01:58;;;;;;;5.88;3.40;;;;;;;;;;5091124;28;20044;-88
2022/10/21 11:04:29;;;;;;;4.63;2.50;;;;;;;;;;5094233;28;20068;-88
2022/10/21 11:07:01;;;;;;;3.90;2.30;;;;;;;;;;5090318;28;20055;-88
2022/10/21 11:09:32;;;;;;;3.30;2.00;;;;;;;;;;5091184;28;20056;-86
2022/10/21 11:12:03;;;;;;;4.90;1.75;;;;;;;;;;5076799;28;20051;-86
2022/10/21 11:14:32;;;;;;;3.78;1.90;;;;;;;;;;5081848;28;20399;-86
2022/10/21 11:17:04;;;;;;;6.90;2.17;;;;;;;;;;5087724;28;20043;-88
2022/10/21 11:19:36;;;;;;;3.40;1.90;;;;;;;;;;5083263;28;20471;-90
2022/10/21 11:22:11;;;;;;;6.75;3.38;;;;;;;;;;5092344;28;20048;-89
2022/10/21 11:24:56;;;;;;;3.20;2.45;;;;;;;;;;5092031;28;20470;-88
2022/10/21 11:27:34;;;;;;;6.25;2.05;;;;;;;;;;5084735;28;20474;-88
2022/10/21 11:30:06;;;;;;;7.95;2.50;;;;;;;;;;5087952;28;20623;-88
2022/10/21 11:32:39;;;;;;;4.10;2.28;;;;;;;;;;5087755;28;20048;-87
2022/10/21 11:35:16;;;;;;;6.85;2.20;;;;;;;;;;5083392;28;20102;-87
2022/10/21 11:37:52;;;;;;;2.50;1.48;;;;;;;;;;5082401;28;20504;-86
2022/10/21 11:40:27;;;;;;;2.90;1.77;;;;;;;;;;5085015;28;20040;-88
2022/10/21 11:42:58;;;;;;;4.20;2.10;;;;;;;;;;5091955;28;20052;-93
2022/10/21 11:45:34;;;;;;;4.72;1.60;;;;;;;;;;5087680;28;20054;-90
2022/10/21 11:48:11;;;;;;;5.53;2.03;;;;;;;;;;5087576;28;20039;-89
2022/10/21 11:50:42;;;;;;;2.03;1.55;;;;;;;;;;5089090;28;20048;-90
2022/10/21 11:53:18;;;;;;;5.22;1.60;;;;;;;;;;5086381;28;20428;-87
2022/10/21 11:55:49;;;;;;;2.83;2.17;;;;;;;;;;5090987;28;20202;-89
2022/10/21 11:58:23;;;;;;;2.22;1.15;;;;;;;;;;5090486;28;20052;-90
2022/10/21 12:00:59;;;;;;;2.67;1.83;;;;;;;;;;5082768;28;20080;-86
2022/10/21 12:03:40;;;;;;;6.50;1.42;;;;;;;;;;5064393;28;20127;-88
2022/10/21 12:06:16;;;;;;;2.67;1.40;;;;;;;;;;5088349;28;20105;-89
2022/10/21 12:08:52;;;;;;;3.40;1.45;;;;;;;;;;5090896;28;20048;-88
2022/10/21 12:11:22;;;;;;;3.58;1.23;;;;;;;;;;5074954;28;20558;-89
2022/10/21 12:13:53;;;;;;;4.68;1.45;;;;;;;;;;5075296;28;20133;-89
2022/10/21 12:16:27;;;;;;;8.98;1.35;;;;;;;;;;5069652;28;20048;-89
2022/10/21 12:19:04;;;;;;;2.90;1.40;;;;;;;;;;5068599;28;20053;-89
2022/10/21 12:21:37;;;;;;;4.32;2.13;;;;;;;;;;5065331;28;20091;-90
2022/10/21 12:24:12;;;;;;;1.55;1.42;;;;;;;;;;5059512;28;20435;-89
2022/10/21 12:26:43;;;;;;;3.70;1.52;;;;;;;;;;5059800;28;20041;-89
2022/10/21 12:29:15;;;;;;;1.20;0.75;;;;;;;;;;5065263;28;20055;-89
2022/10/21 12:31:49;;;;;;;2.45;1.40;;;;;;;;;;5067439;28;20075;-89
2022/10/21 12:34:18;;;;;;;11.73;1.43;;;;;;;;;;5062062;28;20052;-89
2022/10/21 12:36:49;;;;;;;2.80;1.02;;;;;;;;;;5062690;28;20310;-93
2022/10/21 12:39:38;;;;;;;2.72;1.67;;;;;;;;;;5068356;28;20053;-89
2022/10/21 12:42:12;;;;;;;1.10;1.00;;;;;;;;;;5068999;28;20041;-88
2022/10/21 12:44:46;;;;;;;1.77;0.77;;;;;;;;;;5031554;28;20059;-88
2022/10/21 12:50:46;;;;;;;2.65;1.35;;;;;;;;;;4991381;28;20346;-91
2022/10/21 12:53:29;;;;;;;4.82;1.10;;;;;;;;;;4985097;28;20042;-94
2022/10/21 12:56:00;;;;;;;1.85;1.05;;;;;;;;;;4986513;28;20504;-94
2022/10/21 12:58:35;;;;;;;6.38;0.90;;;;;;;;;;4985391;28;20406;-94
2022/10/21 13:01:05;;;;;;;0.98;0.88;;;;;;;;;;4983549;28;20578;-95
2022/10/21 13:03:58;;;;;;;2.83;0.90;;;;;;;;;;4984506;28;20056;-95
2022/10/21 13:06:45;;;;;;;3.05;1.33;;;;;;;;;;4977979;28;20055;-95
2022/10/21 13:09:29;;;;;;;1.55;0.77;;;;;;;;;;4996835;28;20099;-95
2022/10/21 13:12:03;;;;;;;4.07;0.88;;;;;;;;;;5011560;28;20049;-92
2022/10/21 13:14:46;;;;;;;1.70;0.73;;;;;;;;;;5028615;28;20069;-91
2022/10/21 13:17:30;;;;;;;1.13;0.65;;;;;;;;;;5019531;28;20081;-92
2022/10/21 13:20:13;;;;;;;1.40;1.05;;;;;;;;;;5024101;28;20589;-92
2022/10/21 13:22:47;;;;;;;1.52;1.15;;;;;;;;;;5090345;28;20044;-89
2022/10/21 13:25:29;;;;;;;1.25;0.60;;;;;;;;;;5090850;28;20496;-89
2022/10/21 13:31:04;;;;;;;1.00;0.65;;;;;;;;;;5085386;28;20047;-89
2022/10/21 13:33:38;;;;;;;7.50;0.95;;;;;;;;;;5090924;28;20048;-90
2022/10/21 13:36:33;;;;;;;0.90;0.68;;;;;;;;;;5089796;28;20519;-90
2022/10/21 13:39:13;;;;;;;0.70;0.50;;;;;;;;;;5085745;28;20283;-91
2022/10/21 13:41:44;;;;;;;1.02;0.50;;;;;;;;;;5090405;28;20411;-89
2022/10/21 13:44:23;;;;;;;1.40;0.60;;;;;;;;;;5088158;28;20071;-89
2022/10/21 13:46:54;;;;;;;1.85;0.70;;;;;;;;;;5086661;28;20126;-89
2022/10/21 13:49:28;;;;;;;0.25;0.25;;;;;;;;;;5093490;28;20048;-88
2022/10/21 13:51:56;;;;;;;0.90;0.50;;;;;;;;;;5089417;28;20481;-90
2022/10/21 13:54:25;;;;;;;1.35;0.60;;;;;;;;;;5089880;28;20075;-88
2022/10/21 13:56:53;;;;;;;6.63;0.88;;;;;;;;;;5089166;28;20545;-87
2022/10/21 13:59:24;;;;;;;1.63;1.48;;;;;;;;;;5078517;28;20044;-90
2022/10/21 14:01:55;;;;;;;1.85;0.73;;;;;;;;;;5090889;28;20048;-87
2022/10/21 14:04:24;;;;;;;1.17;0.68;;;;;;;;;;5079662;28;20044;-91
2022/10/21 14:06:56;;;;;;;1.23;0.70;;;;;;;;;;5078903;28;20054;-86
2022/10/21 14:09:26;;;;;;;1.02;0.50;;;;;;;;;;5086083;28;20048;-84
2022/10/21 14:11:58;;;;;;;0.70;0.50;;;;;;;;;;5086607;28;20050;-93
2022/10/21 14:17:17;;;;;;;5.97;0.98;;;;;;;;;;5097092;28;20135;-95
2022/10/21 14:19:57;;;;;;;2.40;1.30;;;;;;;;;;5087980;28;20429;-96
2022/10/21 14:22:28;;;;;;;4.05;1.90;;;;;;;;;;5088480;28;20036;-92
2022/10/21 14:25:17;;;;;;;3.05;1.95;;;;;;;;;;5081436;28;20051;-94
2022/10/21 14:28:12;;;;;;;2.47;1.50;;;;;;;;;;5072704;28;20139;-94
2022/10/21 14:30:44;;;;;;;4.18;1.33;;;;;;;;;;5087274;23;20136;-88
2022/10/21 14:33:18;;;;;;;1.75;0.82;;;;;;;;;;5072663;28;20772;-89
2022/10/21 14:36:03;;;;;;;2.72;0.75;;;;;;;;;;5070377;28;20499;-87
2022/10/21 14:38:36;;;;;;;1.70;0.68;;;;;;;;;;5065968;28;20063;-90
2022/10/21 14:41:06;;;;;;;1.08;0.98;;;;;;;;;;5064859;28;20492;-90
2022/10/21 14:43:37;;;;;;;0.63;0.52;;;;;;;;;;5067314;28;20062;-88
2022/10/21 14:46:06;;;;;;;1.63;0.80;;;;;;;;;;5069482;28;20114;-87
2022/10/21 14:48:38;;;;;;;1.83;0.65;;;;;;;;;;5072480;28;20048;-89
2022/10/21 14:51:07;;;;;;;0.90;0.70;;;;;;;;;;5067366;28;20048;-89
2022/10/21 14:53:37;;;;;;;0.95;0.40;;;;;;;;;;5063547;28;20044;-88
2022/10/21 14:56:07;;;;;;;0.68;0.30;;;;;;;;;;5064763;28;20761;-90
2022/10/21 14:58:37;;;;;;;1.08;0.63;;;;;;;;;;5065740;28;20053;-89
2022/10/21 15:01:07;;;;;;;0.95;0.50;;;;;;;;;;5076604;28;20051;-92
2022/10/21 15:03:38;;;;;;;0.50;0.25;;;;;;;;;;5059903;28;20139;-90
2022/10/21 15:06:10;;;;;;;1.65;0.82;;;;;;;;;;5065948;28;20427;-90
2022/10/21 15:08:40;;;;;;;1.83;0.60;;;;;;;;;;5072843;28;20500;-90
2022/10/21 15:11:32;;;;;;;0.55;0.50;;;;;;;;;;5069716;28;20104;-90
2022/10/21 15:14:05;;;;;;;1.38;0.60;;;;;;;;;;5059899;28;20051;-90
2022/10/21 15:16:35;;;;;;;0.15;0.15;;;;;;;;;;5067352;28;20488;-91
2022/10/21 15:19:09;;;;;;;0.50;0.35;;;;;;;;;;5071607;28;20045;-90